Time;durP1;ratioP1;P1;durP2;ratioP2;P2;SDS_P1;SDS_P2;PMS_P1;PMS_P2;Temp;Humidity;BMP_temperature;BMP_pressure;BME280_temperature;BME280_humidity;BME280_pressure;Samples;Min_cycle;Max_cycle;Signal;HPM_P1;HPM_P2
2023/05/27 00:00:20;;;;;;;;;;;;;;;;;;1697323;30;37456596;-89
2023/05/27 00:02:45;;;;;;;;;5.67;5.67;;;;;;;;3754625;30;23684069;-90
2023/05/27 00:05:26;;;;;;;;;4.00;4.00;;;;;;;;3769480;30;24445897;-90
2023/05/27 00:07:51;;;;;;;;;7.67;7.00;;;;;;;;3804572;30;12268102;-89
2023/05/27 00:10:16;;;;;;;;;9.00;7.00;;;;;;;;3376216;30;8192121;-90
2023/05/27 00:12:41;;;;;;;;;11.33;8.33;;;;;;;;3980411;30;10448687;-89
2023/05/27 00:15:17;;;;;;;;;5.50;5.50;;;;;;;;4231359;30;13027094;-89
2023/05/27 00:17:42;;;;;;;;;10.00;8.00;;;;;;;;3711692;30;11311937;-89
2023/05/27 00:20:07;;;;;;;;;;;;;;;;;;1739008;30;26399385;-90
2023/05/27 00:22:34;;;;;;;;;3.33;3.33;;;;;;;;4304723;30;8696401;-90
2023/05/27 00:25:01;;;;;;;;;7.00;4.00;;;;;;;;2828427;30;37136599;-89
2023/05/27 00:27:26;;;;;;;;;5.00;5.00;;;;;;;;4322285;30;7231981;-89
2023/05/27 00:29:51;;;;;;;;;9.33;8.00;;;;;;;;4704101;30;46154;-89
2023/05/27 00:32:17;;;;;;;;;6.25;6.25;;;;;;;;3647723;30;23112736;-89
2023/05/27 00:34:42;;;;;;;;;7.00;7.00;;;;;;;;3813440;30;11310179;-89
2023/05/27 00:37:08;;;;;;;;;10.67;8.33;;;;;;;;4689271;30;45393;-89
2023/05/27 00:39:34;;;;;;;;;7.50;6.75;;;;;;;;4015226;30;8289362;-89
2023/05/27 00:42:00;;;;;;;;;7.25;7.25;;;;;;;;4685023;30;556107;-90
2023/05/27 00:44:25;;;;;;;;;7.00;7.00;;;;;;;;4481754;30;1935815;-89
2023/05/27 00:46:51;;;;;;;;;9.25;9.25;;;;;;;;4570554;30;3337845;-89
2023/05/27 00:49:17;;;;;;;;;5.60;5.60;;;;;;;;4006612;30;9451887;-89
2023/05/27 00:51:42;;;;;;;;;5.00;5.00;;;;;;;;4701968;30;45235;-89
2023/05/27 00:54:08;;;;;;;;;7.25;6.75;;;;;;;;4689012;30;45253;-89
2023/05/27 00:56:33;;;;;;;;;8.50;7.00;;;;;;;;4701318;30;46364;-89
2023/05/27 00:58:59;;;;;;;;;5.00;5.00;;;;;;;;4709265;30;45306;-89
2023/05/27 01:01:28;;;;;;;;;7.50;7.25;;;;;;;;4703217;30;45433;-90
2023/05/27 01:03:55;;;;;;;;;6.00;6.00;;;;;;;;4704302;30;45517;-89
2023/05/27 01:06:39;;;;;;;;;5.75;5.75;;;;;;;;4358873;30;2389400;-89
2023/05/27 01:09:11;;;;;;;;;8.25;7.25;;;;;;;;4528551;30;3567728;-89
2023/05/27 01:11:50;;;;;;;;;6.50;6.00;;;;;;;;4657356;30;1436911;-89
2023/05/27 01:14:16;;;;;;;;;5.25;5.25;;;;;;;;4697469;30;45395;-89
2023/05/27 01:16:44;;;;;;;;;8.00;8.00;;;;;;;;4682793;30;871760;-89
2023/05/27 01:19:16;;;;;;;;;9.00;8.00;;;;;;;;4629437;30;1384449;-89
2023/05/27 01:21:45;;;;;;;;;8.50;5.75;;;;;;;;4566253;30;2432104;-90
2023/05/27 01:24:10;;;;;;;;;6.00;6.00;;;;;;;;3991211;30;8548010;-89
2023/05/27 01:26:36;;;;;;;;;9.00;8.33;;;;;;;;3652029;30;10968023;-89
2023/05/27 01:29:01;;;;;;;;;6.67;6.67;;;;;;;;4579235;30;4134603;-90
2023/05/27 01:31:35;;;;;;;;;7.33;5.67;;;;;;;;4704325;30;45871;-89
2023/05/27 01:34:03;;;;;;;;;7.00;5.33;;;;;;;;4703973;30;46183;-90
2023/05/27 01:36:30;;;;;;;;;5.67;5.67;;;;;;;;4614656;30;2355106;-89
2023/05/27 01:38:58;;;;;;;;;5.00;5.00;;;;;;;;2760004;30;50907918;-89
2023/05/27 01:41:23;;;;;;;;;7.50;6.75;;;;;;;;2398116;30;66463795;-89
2023/05/27 01:43:51;;;;;;;;;;;;;;;;;;934399;30;51894711;-89
2023/05/27 01:46:17;;;;;;;;;6.00;4.67;;;;;;;;2977368;30;22863262;-89
2023/05/27 01:48:43;;;;;;;;;9.00;5.67;;;;;;;;4707655;30;45387;-89
2023/05/27 01:51:08;;;;;;;;;6.00;6.00;;;;;;;;4710196;30;45764;-89
2023/05/27 01:53:34;;;;;;;;;5.50;5.50;;;;;;;;4704512;30;47356;-89
2023/05/27 01:55:59;;;;;;;;;5.33;5.33;;;;;;;;4694679;30;45407;-89
2023/05/27 01:58:24;;;;;;;;;6.67;6.67;;;;;;;;4702988;30;45493;-90
2023/05/27 02:00:50;;;;;;;;;6.00;5.00;;;;;;;;4704716;30;45403;-89
2023/05/27 02:03:18;;;;;;;;;5.50;5.50;;;;;;;;4705061;30;45407;-89
2023/05/27 02:05:44;;;;;;;;;6.00;6.00;;;;;;;;4676374;30;826945;-89
2023/05/27 02:08:10;;;;;;;;;4.50;4.50;;;;;;;;4221518;30;15379834;-89
2023/05/27 02:10:36;;;;;;;;;;;;;;;;;;1362804;30;33266081;-89
2023/05/27 02:13:11;;;;;;;;;6.50;6.50;;;;;;;;1660523;30;31252606;-89
2023/05/27 02:15:36;;;;;;;;;7.00;7.00;;;;;;;;4670239;30;1001202;-89
2023/05/27 02:18:01;;;;;;;;;9.00;6.67;;;;;;;;4704691;30;45524;-89
2023/05/27 02:20:27;;;;;;;;;6.00;5.00;;;;;;;;4700610;30;45618;-89
2023/05/27 02:22:52;;;;;;;;;6.00;6.00;;;;;;;;4717231;30;47490;-89
2023/05/27 02:25:17;;;;;;;;;7.33;6.00;;;;;;;;4704875;30;45379;-89
2023/05/27 02:27:47;;;;;;;;;4.67;4.67;;;;;;;;4703890;30;45415;-89
2023/05/27 02:30:12;;;;;;;;;6.75;6.25;;;;;;;;4389837;30;5712315;-89
2023/05/27 02:32:38;;;;;;;;;7.75;7.75;;;;;;;;4596158;30;2668602;-89
2023/05/27 02:35:03;;;;;;;;;6.75;5.50;;;;;;;;2626102;30;14359300;-89
2023/05/27 02:37:28;;;;;;;;;7.00;7.00;;;;;;;;4698955;30;180084;-89
2023/05/27 02:39:55;;;;;;;;;6.50;6.50;;;;;;;;4703127;30;45626;-89
2023/05/27 02:42:20;;;;;;;;;8.33;8.33;;;;;;;;4660636;30;1383149;-90
2023/05/27 02:44:45;;;;;;;;;10.00;7.80;;;;;;;;3944192;30;11122878;-89
2023/05/27 02:47:13;;;;;;;;;6.20;6.20;;;;;;;;4602713;30;3127336;-89
2023/05/27 02:49:38;;;;;;;;;13.25;9.00;;;;;;;;4595733;30;1796208;-89
2023/05/27 02:52:03;;;;;;;;;7.50;7.50;;;;;;;;4705895;30;101138;-89
2023/05/27 02:54:29;;;;;;;;;7.75;6.00;;;;;;;;4705139;30;45472;-89
2023/05/27 02:56:54;;;;;;;;;4.00;3.00;;;;;;;;4702587;30;45468;-89
2023/05/27 02:59:19;;;;;;;;;5.50;5.50;;;;;;;;4689492;30;46985;-89
2023/05/27 03:01:44;;;;;;;;;8.00;6.25;;;;;;;;4704810;30;45486;-89
2023/05/27 03:04:10;;;;;;;;;7.00;7.00;;;;;;;;4703967;30;45486;-89
2023/05/27 03:06:35;;;;;;;;;5.25;5.25;;;;;;;;4703550;30;45822;-89
2023/05/27 03:09:01;;;;;;;;;7.33;6.00;;;;;;;;4703546;30;46532;-89
2023/05/27 03:11:26;;;;;;;;;7.00;7.00;;;;;;;;4702577;30;45498;-89
2023/05/27 03:13:51;;;;;;;;;5.75;5.75;;;;;;;;4704052;30;45506;-89
2023/05/27 03:16:19;;;;;;;;;7.50;7.00;;;;;;;;4704037;30;45464;-89
2023/05/27 03:18:44;;;;;;;;;7.75;7.25;;;;;;;;4703621;30;45439;-89
2023/05/27 03:21:10;;;;;;;;;6.00;5.25;;;;;;;;4703518;30;45372;-89
2023/05/27 03:23:35;;;;;;;;;8.50;7.25;;;;;;;;4703018;30;45482;-89
2023/05/27 03:26:00;;;;;;;;;7.00;4.33;;;;;;;;4703127;30;45404;-89
2023/05/27 03:28:25;;;;;;;;;6.25;6.25;;;;;;;;4700317;30;46306;-89
2023/05/27 03:30:55;;;;;;;;;6.75;6.00;;;;;;;;4703583;30;78336;-89
2023/05/27 03:33:37;;;;;;;;;8.00;5.00;;;;;;;;3410626;30;26127321;-89
2023/05/27 03:36:02;;;;;;;;;8.75;8.75;;;;;;;;2934154;30;18642710;-89
2023/05/27 03:38:27;;;;;;;;;7.00;7.00;;;;;;;;4705815;30;45593;-89
2023/05/27 03:40:53;;;;;;;;;7.67;7.67;;;;;;;;4703681;30;45375;-89
2023/05/27 03:43:18;;;;;;;;;7.00;7.00;;;;;;;;4704941;30;45678;-89
2023/05/27 03:45:43;;;;;;;;;9.67;8.67;;;;;;;;4687961;30;48040;-89
2023/05/27 03:48:08;;;;;;;;;9.00;8.00;;;;;;;;4700352;30;45417;-89
2023/05/27 03:50:57;;;;;;;;;4.00;4.00;;;;;;;;3071728;30;28050907;-89
2023/05/27 03:53:22;;;;;;;;;8.00;8.00;;;;;;;;4213654;30;10745777;-89
2023/05/27 03:55:50;;;;;;;;;5.60;5.60;;;;;;;;3363349;30;23854198;-89
2023/05/27 03:58:19;;;;;;;;;8.00;8.00;;;;;;;;4702718;30;45490;-89
2023/05/27 04:00:47;;;;;;;;;6.25;6.25;;;;;;;;4700272;30;45433;-89
2023/05/27 04:03:13;;;;;;;;;6.00;6.00;;;;;;;;4703451;30;45478;-89
2023/05/27 04:05:44;;;;;;;;;8.00;7.00;;;;;;;;3700383;30;7841560;-89
2023/05/27 04:08:12;;;;;;;;;7.00;7.00;;;;;;;;3367016;30;10677550;-89
2023/05/27 04:10:38;;;;;;;;;7.33;7.33;;;;;;;;4707738;30;45446;-89
2023/05/27 04:13:03;;;;;;;;;9.00;8.00;;;;;;;;4697598;30;260569;-89
2023/05/27 04:15:28;;;;;;;;;7.75;7.75;;;;;;;;4702765;30;45565;-89
2023/05/27 04:17:53;;;;;;;;;9.20;8.60;;;;;;;;4514739;30;3912743;-89
2023/05/27 04:20:19;;;;;;;;;9.20;9.20;;;;;;;;4609742;30;2970609;-89
2023/05/27 04:22:44;;;;;;;;;8.25;7.50;;;;;;;;4701072;30;45589;-89
2023/05/27 04:25:09;;;;;;;;;7.33;7.33;;;;;;;;4702258;30;45446;-89
2023/05/27 04:27:36;;;;;;;;;9.50;8.75;;;;;;;;4701549;30;47179;-89
2023/05/27 04:30:02;;;;;;;;;6.25;6.25;;;;;;;;4684498;30;45402;-89
2023/05/27 04:32:27;;;;;;;;;5.33;5.33;;;;;;;;4699913;30;45519;-89
2023/05/27 04:34:53;;;;;;;;;8.00;8.00;;;;;;;;4703553;30;45331;-89
2023/05/27 04:37:19;;;;;;;;;6.00;5.00;;;;;;;;4701157;30;45500;-89
2023/05/27 04:39:46;;;;;;;;;6.00;6.00;;;;;;;;4701727;30;45419;-89
2023/05/27 04:42:12;;;;;;;;;7.25;6.00;;;;;;;;4701799;30;45489;-89
2023/05/27 04:44:38;;;;;;;;;8.00;7.25;;;;;;;;4701812;30;45522;-89
2023/05/27 04:47:03;;;;;;;;;6.75;6.75;;;;;;;;4701761;30;46261;-89
2023/05/27 04:49:29;;;;;;;;;8.00;8.00;;;;;;;;4703488;30;45387;-89
2023/05/27 04:51:54;;;;;;;;;8.33;7.67;;;;;;;;4701170;30;45999;-89
2023/05/27 04:54:21;;;;;;;;;7.67;7.67;;;;;;;;4701890;30;45394;-89
2023/05/27 04:56:46;;;;;;;;;8.67;5.67;;;;;;;;4701804;30;46059;-89
2023/05/27 04:59:16;;;;;;;;;9.67;8.67;;;;;;;;4702089;30;45212;-89
2023/05/27 05:02:09;;;;;;;;;8.00;8.00;;;;;;;;4701339;30;45587;-89
2023/05/27 05:04:36;;;;;;;;;6.33;6.33;;;;;;;;4701389;30;45423;-89
2023/05/27 05:07:01;;;;;;;;;8.33;8.33;;;;;;;;4699985;30;46692;-89
2023/05/27 05:09:26;;;;;;;;;6.00;6.00;;;;;;;;4686433;30;45633;-89
2023/05/27 05:11:52;;;;;;;;;8.67;8.67;;;;;;;;4703853;30;45753;-89
2023/05/27 05:14:17;;;;;;;;;9.00;8.00;;;;;;;;4705670;30;45669;-89
2023/05/27 05:16:42;;;;;;;;;10.00;9.00;;;;;;;;4705470;30;47600;-89
2023/05/27 05:19:07;;;;;;;;;7.00;7.00;;;;;;;;4694678;30;45713;-89
2023/05/27 05:21:33;;;;;;;;;9.33;7.33;;;;;;;;4698274;30;101383;-89
2023/05/27 05:23:58;;;;;;;;;9.33;8.33;;;;;;;;4710182;30;45424;-89
2023/05/27 05:26:23;;;;;;;;;6.67;6.67;;;;;;;;4704143;30;137157;-89
2023/05/27 05:28:48;;;;;;;;;6.67;6.00;;;;;;;;4704554;30;45428;-90
2023/05/27 05:31:14;;;;;;;;;8.00;8.00;;;;;;;;4711834;30;44871;-89
2023/05/27 05:33:39;;;;;;;;;8.00;6.33;;;;;;;;4677782;30;601849;-89
2023/05/27 05:36:04;;;;;;;;;6.33;6.33;;;;;;;;4713609;30;45509;-89
2023/05/27 05:38:29;;;;;;;;;6.33;6.33;;;;;;;;4506229;30;6133199;-89
2023/05/27 05:40:55;;;;;;;;;8.00;7.00;;;;;;;;4483505;30;4255174;-89
2023/05/27 05:43:20;;;;;;;;;7.00;6.00;;;;;;;;4022873;30;9246274;-89
2023/05/27 05:45:46;;;;;;;;;6.00;6.00;;;;;;;;4090759;30;13113936;-89
2023/05/27 05:48:11;;;;;;;;;8.33;6.00;;;;;;;;4708553;30;28453;-89
2023/05/27 05:50:36;;;;;;;;;4.00;4.00;;;;;;;;4697909;30;365151;-90
2023/05/27 05:53:01;;;;;;;;;7.33;7.33;;;;;;;;4716409;30;52076;-89
2023/05/27 05:55:27;;;;;;;;;7.00;7.00;;;;;;;;4717248;30;45405;-90
2023/05/27 05:57:52;;;;;;;;;7.33;7.33;;;;;;;;4714487;30;45441;-89
2023/05/27 06:00:18;;;;;;;;;8.00;8.00;;;;;;;;4719985;30;45471;-89
2023/05/27 06:02:43;;;;;;;;;5.67;5.67;;;;;;;;4707007;30;45486;-89
2023/05/27 06:05:08;;;;;;;;;5.67;5.67;;;;;;;;4707812;30;45495;-89
2023/05/27 06:07:34;;;;;;;;;6.33;6.33;;;;;;;;4705910;30;45379;-89
2023/05/27 06:09:59;;;;;;;;;7.33;6.00;;;;;;;;4706225;30;45761;-89
2023/05/27 06:12:48;;;;;;;;;6.67;6.67;;;;;;;;4706435;30;45470;-89
2023/05/27 06:15:13;;;;;;;;;5.67;5.67;;;;;;;;4659158;30;45824;-89
2023/05/27 06:17:41;;;;;;;;;6.00;6.00;;;;;;;;4706615;30;45162;-89
2023/05/27 06:20:06;;;;;;;;;5.33;5.33;;;;;;;;4706255;30;45391;-90
2023/05/27 06:22:32;;;;;;;;;7.67;5.33;;;;;;;;4706178;30;45133;-89
2023/05/27 06:24:57;;;;;;;;;6.33;4.33;;;;;;;;4706312;30;45217;-90
2023/05/27 06:27:22;;;;;;;;;8.00;6.67;;;;;;;;4681440;30;45417;-90
2023/05/27 06:29:50;;;;;;;;;6.00;6.00;;;;;;;;4473391;30;5292486;-89
2023/05/27 06:32:15;;;;;;;;;6.67;6.67;;;;;;;;4656406;30;786901;-89
2023/05/27 06:34:41;;;;;;;;;4.33;4.33;;;;;;;;4710842;30;126362;-89
2023/05/27 06:37:06;;;;;;;;;6.00;6.00;;;;;;;;4706323;30;45603;-89
2023/05/27 06:39:31;;;;;;;;;5.67;5.67;;;;;;;;4706473;30;45456;-89
2023/05/27 06:41:56;;;;;;;;;6.67;6.33;;;;;;;;4704938;30;45324;-89
2023/05/27 06:44:22;;;;;;;;;7.00;7.00;;;;;;;;4671298;30;934499;-89
2023/05/27 06:46:47;;;;;;;;;10.67;7.33;;;;;;;;4675310;30;541463;-89
2023/05/27 06:49:12;;;;;;;;;5.67;5.67;;;;;;;;4656005;30;1516934;-90
2023/05/27 06:51:37;;;;;;;;;7.33;7.00;;;;;;;;4705152;30;45485;-90
2023/05/27 06:54:02;;;;;;;;;10.33;9.33;;;;;;;;4701635;30;45450;-91
2023/05/27 06:56:28;;;;;;;;;7.67;6.67;;;;;;;;4716564;30;45220;-91
2023/05/27 07:08:05;;;;;;;;;6.00;6.00;;;;;;;;4153504;30;12510160;-90
2023/05/27 07:10:30;;;;;;;;;6.75;6.75;;;;;;;;3115528;30;13053311;-91
2023/05/27 07:12:55;;;;;;;;;7.33;7.33;;;;;;;;3486543;30;18941165;-90
2023/05/27 07:15:20;;;;;;;;;6.00;6.00;;;;;;;;4220940;30;6763503;-91
2023/05/27 07:17:46;;;;;;;;;4.00;4.00;;;;;;;;4559871;30;3431650;-92
2023/05/27 07:20:11;;;;;;;;;6.00;6.00;;;;;;;;4687076;30;45313;-91
2023/05/27 07:39:53;;;;;;;;;7.00;7.00;;;;;;;;4172080;24;11516853;-92
2023/05/27 08:24:25;;;;;;;;;4.67;4.67;;;;;;;;4772071;24;1650363;-90
2023/05/27 08:26:50;;;;;;;;;4.33;4.33;;;;;;;;4587355;30;3712573;-92
2023/05/27 08:29:21;;;;;;;;;5.67;5.67;;;;;;;;3739800;30;8854160;-91
2023/05/27 08:31:47;;;;;;;;;4.00;4.00;;;;;;;;1959132;30;23100944;-91
2023/05/27 08:34:13;;;;;;;;;7.00;5.00;;;;;;;;2571333;30;26890067;-91
2023/05/27 08:36:38;;;;;;;;;4.67;4.33;;;;;;;;3444557;30;26374387;-92
2023/05/27 08:39:04;;;;;;;;;7.00;6.50;;;;;;;;2604781;30;13624913;-92
2023/05/27 08:41:30;;;;;;;;;5.00;5.00;;;;;;;;3547955;30;14048387;-92
2023/05/27 08:43:55;;;;;;;;;5.50;5.50;;;;;;;;2987619;30;11543111;-93
2023/05/27 08:46:20;;;;;;;;;3.67;3.67;;;;;;;;4126193;30;9332753;-92
2023/05/27 08:48:46;;;;;;;;;6.67;4.33;;;;;;;;4686842;30;867809;-93
2023/05/27 08:51:13;;;;;;;;;6.00;6.00;;;;;;;;4592944;30;2217435;-92
2023/05/27 08:53:38;;;;;;;;;5.50;5.25;;;;;;;;4750047;30;44656;-92
2023/05/27 08:56:05;;;;;;;;;5.67;5.67;;;;;;;;4726235;30;45394;-92
2023/05/27 08:58:31;;;;;;;;;3.00;3.00;;;;;;;;4718072;30;45230;-92
2023/05/27 09:00:57;;;;;;;;;4.00;4.00;;;;;;;;4717992;30;45482;-92
2023/05/27 09:03:23;;;;;;;;;4.00;4.00;;;;;;;;4720294;30;46514;-92
2023/05/27 09:05:50;;;;;;;;;4.33;4.33;;;;;;;;4720538;30;45372;-93
2023/05/27 09:08:18;;;;;;;;;5.33;5.33;;;;;;;;4718723;30;45390;-93
2023/05/27 09:10:43;;;;;;;;;2.67;2.67;;;;;;;;4713021;30;45537;-93
2023/05/27 09:13:09;;;;;;;;;5.33;5.33;;;;;;;;4722113;30;47046;-93
2023/05/27 09:15:34;;;;;;;;;7.00;5.67;;;;;;;;2455240;30;48869980;-92
2023/05/27 09:18:01;;;;;;;;;5.00;5.00;;;;;;;;4717234;30;45720;-92
2023/05/27 09:20:27;;;;;;;;;7.00;5.67;;;;;;;;3740254;30;9343174;-93
2023/05/27 09:22:58;;;;;;;;;3.75;3.75;;;;;;;;4719769;30;45337;-92
2023/05/27 09:25:30;;;;;;;;;5.50;4.00;;;;;;;;4235982;30;13639906;-92
2023/05/27 09:27:56;;;;;;;;;5.00;5.00;;;;;;;;4147461;30;16089972;-92
2023/05/27 09:30:44;;;;;;;;;10.50;5.50;;;;;;;;3681098;30;33499584;-92
2023/05/27 09:33:09;;;;;;;;;7.67;7.33;;;;;;;;4221921;30;7566531;-92
2023/05/27 09:35:38;;;;;;;;;4.33;4.33;;;;;;;;4721491;30;45407;-92
2023/05/27 09:38:06;;;;;;;;;4.00;4.00;;;;;;;;4710795;30;45478;-93
2023/05/27 09:40:32;;;;;;;;;4.33;4.33;;;;;;;;4719845;30;45345;-92
2023/05/27 09:42:57;;;;;;;;;4.00;4.00;;;;;;;;4714257;30;46386;-93
2023/05/27 09:45:22;;;;;;;;;5.00;5.00;;;;;;;;4706175;30;47383;-93
2023/05/27 09:47:49;;;;;;;;;5.00;5.00;;;;;;;;4705977;30;45321;-92
2023/05/27 09:50:15;;;;;;;;;5.67;5.67;;;;;;;;4721541;30;45454;-92
2023/05/27 09:52:43;;;;;;;;;5.00;5.00;;;;;;;;4716788;30;45539;-91
2023/05/27 09:55:09;;;;;;;;;4.33;4.33;;;;;;;;4715351;30;45427;-93
2023/05/27 09:57:35;;;;;;;;;3.33;3.33;;;;;;;;4720293;30;45554;-94
2023/05/27 10:00:23;;;;;;;;;6.00;6.00;;;;;;;;4723192;30;45546;-93
2023/05/27 10:02:48;;;;;;;;;5.00;5.00;;;;;;;;4720920;30;46221;-93
2023/05/27 10:05:15;;;;;;;;;4.00;4.00;;;;;;;;4704567;30;46175;-92
2023/05/27 10:07:41;;;;;;;;;5.67;5.00;;;;;;;;4708645;30;45676;-92
2023/05/27 10:10:08;;;;;;;;;3.00;2.67;;;;;;;;4721193;30;45272;-92
2023/05/27 10:12:33;;;;;;;;;4.00;3.33;;;;;;;;4722983;30;46097;-91
2023/05/27 10:14:59;;;;;;;;;3.00;3.00;;;;;;;;4720957;30;77092;-92
2023/05/27 10:17:24;;;;;;;;;5.67;5.33;;;;;;;;4722247;30;102685;-94
2023/05/27 10:19:54;;;;;;;;;5.00;5.00;;;;;;;;4722787;30;45427;-91
2023/05/27 10:22:20;;;;;;;;;7.00;5.67;;;;;;;;4722167;30;45511;-93
2023/05/27 10:24:48;;;;;;;;;4.00;4.00;;;;;;;;4724098;30;45607;-94
2023/05/27 10:27:13;;;;;;;;;5.00;5.00;;;;;;;;4741511;30;45422;-93
2023/05/27 10:29:39;;;;;;;;;5.00;5.00;;;;;;;;4714492;30;309399;-92
2023/05/27 10:32:04;;;;;;;;;3.00;3.00;;;;;;;;4725833;30;513903;-93
2023/05/27 10:34:37;;;;;;;;;3.33;3.33;;;;;;;;4741794;30;45452;-92
2023/05/27 10:37:02;;;;;;;;;3.67;3.67;;;;;;;;4740220;30;45417;-93
2023/05/27 10:39:28;;;;;;;;;6.67;6.00;;;;;;;;4737488;30;45478;-92
2023/05/27 10:41:54;;;;;;;;;26.75;26.75;;;;;;;;4719488;30;571551;-92
2023/05/27 10:44:27;;;;;;;;;11.33;8.33;;;;;;;;4354317;30;4149245;-92
2023/05/27 10:46:58;;;;;;;;;5.50;5.50;;;;;;;;4555667;30;1719906;-93
2023/05/27 10:49:25;;;;;;;;;7.20;6.60;;;;;;;;3921867;30;9785578;-94
2023/05/27 10:51:51;;;;;;;;;5.75;5.75;;;;;;;;2245434;30;23492769;-92
2023/05/27 10:54:16;;;;;;;;;6.33;4.67;;;;;;;;4489846;30;3723002;-93
2023/05/27 10:56:49;;;;;;;;;5.25;5.25;;;;;;;;3954799;30;7043482;-92
2023/05/27 10:59:20;;;;;;;;;6.00;6.00;;;;;;;;3244216;29;15649065;-92
2023/05/27 11:01:46;;;;;;;;;5.00;5.00;;;;;;;;4252670;30;6733058;-92
2023/05/27 11:04:12;;;;;;;;;6.00;6.00;;;;;;;;4744033;29;46842;-93
2023/05/27 11:06:37;;;;;;;;;4.33;4.33;;;;;;;;4742920;30;45219;-93
2023/05/27 11:09:03;;;;;;;;;4.00;4.00;;;;;;;;4724191;30;46892;-93
2023/05/27 11:11:41;;;;;;;;;3.50;3.50;;;;;;;;2101233;30;53029935;-93
2023/05/27 11:14:07;;;;;;;;;4.33;4.33;;;;;;;;4672247;29;2005092;-92
2023/05/27 11:30:16;;;;;;;;;6.00;6.00;;;;;;;;4983625;24;2451423;-92
2023/05/27 11:32:42;;;;;;;;;6.00;6.00;;;;;;;;3195870;29;18842773;-92
2023/05/27 11:35:22;;;;;;;;;;;;;;;;;;2847366;29;40284982;-92
2023/05/27 11:37:53;;;;;;;;;7.00;5.00;;;;;;;;985749;29;84495598;-93
2023/05/27 11:40:38;;;;;;;;;9.50;8.00;;;;;;;;2603942;30;31883876;-92
2023/05/27 11:43:04;;;;;;;;;2.25;2.25;;;;;;;;1994679;30;58265935;-94
2023/05/27 11:45:30;;;;;;;;;3.33;3.33;;;;;;;;4762607;29;28454;-92
2023/05/27 11:47:55;;;;;;;;;5.33;5.33;;;;;;;;4750939;29;265473;-93
2023/05/27 11:50:21;;;;;;;;;8.33;5.67;;;;;;;;4615334;29;3448360;-92
2023/05/27 11:52:56;;;;;;;;;4.67;4.00;;;;;;;;4754235;29;44596;-92
2023/05/27 11:55:24;;;;;;;;;4.67;3.00;;;;;;;;1296341;29;38800305;-92
2023/05/27 11:57:50;;;;;;;;;6.75;5.00;;;;;;;;2233624;30;41045844;-92
2023/05/27 12:00:15;;;;;;;;;4.00;4.00;;;;;;;;4750510;30;339586;-92
2023/05/27 12:02:41;;;;;;;;;5.00;5.00;;;;;;;;4756564;29;86330;-92
2023/05/27 12:05:07;;;;;;;;;4.00;4.00;;;;;;;;4218163;29;11543056;-92
2023/05/27 12:07:33;;;;;;;;;5.33;5.33;;;;;;;;4492190;29;6307342;-92
2023/05/27 12:10:01;;;;;;;;;4.50;4.50;;;;;;;;1299191;29;56801125;-92
2023/05/27 12:12:26;;;;;;;;;4.00;4.00;;;;;;;;4753795;29;462746;-92
2023/05/27 12:14:52;;;;;;;;;4.67;4.67;;;;;;;;4771894;30;8909;-92
2023/05/27 12:17:17;;;;;;;;;3.67;3.67;;;;;;;;4762870;30;45346;-92
2023/05/27 12:19:42;;;;;;;;;5.00;5.00;;;;;;;;4741291;30;45462;-92
2023/05/27 12:22:07;;;;;;;;;6.00;6.00;;;;;;;;4760330;30;45354;-91
2023/05/27 12:24:34;;;;;;;;;6.00;6.00;;;;;;;;4743555;30;45311;-91
2023/05/27 12:27:00;;;;;;;;;3.00;3.00;;;;;;;;4741363;29;168463;-91
2023/05/27 12:29:26;;;;;;;;;4.33;4.33;;;;;;;;4644181;30;3478631;-91
2023/05/27 12:31:51;;;;;;;;;3.67;3.67;;;;;;;;4739821;30;45325;-91
2023/05/27 12:34:16;;;;;;;;;5.00;5.00;;;;;;;;4749811;30;47632;-91
2023/05/27 12:36:42;;;;;;;;;3.67;3.67;;;;;;;;4761198;30;45650;-91
2023/05/27 12:39:07;;;;;;;;;3.00;3.00;;;;;;;;4754478;29;45403;-92
2023/05/27 12:41:32;;;;;;;;;3.67;3.67;;;;;;;;4738999;30;46521;-91
2023/05/27 12:43:59;;;;;;;;;6.33;6.33;;;;;;;;3336055;30;35553925;-92
2023/05/27 12:46:24;;;;;;;;;4.25;4.25;;;;;;;;4114930;29;16789522;-92
2023/05/27 12:48:49;;;;;;;;;5.00;4.33;;;;;;;;4740151;30;45477;-92
2023/05/27 12:51:15;;;;;;;;;3.67;3.67;;;;;;;;4737804;30;45505;-92
2023/05/27 12:53:40;;;;;;;;;6.33;6.33;;;;;;;;4738453;30;45406;-92
2023/05/27 12:56:06;;;;;;;;;3.00;3.00;;;;;;;;4741795;29;45326;-91
2023/05/27 12:58:31;;;;;;;;;7.00;4.33;;;;;;;;4738901;30;45588;-93
2023/05/27 13:01:33;;;;;;;;;9.50;5.50;;;;;;;;1710264;30;47887817;-93
2023/05/27 13:05:55;;;;;;;;;;;;;;;;;;382185;30;149082231;-91
2023/05/27 13:08:20;;;;;;;;;5.67;5.67;;;;;;;;1446688;30;59872223;-91
2023/05/27 13:11:21;;;;;;;;;;;;;;;;;;1657349;30;83500716;-92
2023/05/27 13:13:46;;;;;;;;;4.00;4.00;;;;;;;;4757305;30;35640;-92
2023/05/27 13:17:25;;;;;;;;;4.00;4.00;;;;;;;;2436180;30;77937819;-91
2023/05/27 13:30:29;;;;;;;;;7.00;7.00;;;;;;;;3;132532586;138693300;-90
2023/05/27 13:33:07;;;;;;;;;4.00;4.00;;;;;;;;1263146;30;57172587;-93
2023/05/27 13:36:22;;;;;;;;;;;;;;;;;;1666422;30;75540071;-92
2023/05/27 13:38:48;;;;;;;;;3.00;3.00;;;;;;;;3104154;30;41565004;-90
2023/05/27 13:42:57;;;;;;;;;3.00;3.00;;;;;;;;2962509;29;114860877;-90
2023/05/27 13:45:34;;;;;;;;;4.00;3.00;;;;;;;;3766478;29;15825443;-90
2023/05/27 13:47:59;;;;;;;;;6.67;5.00;;;;;;;;2688676;29;27507491;-90
2023/05/27 13:50:25;;;;;;;;;5.33;4.33;;;;;;;;4438090;30;5987528;-90
2023/05/27 13:52:50;;;;;;;;;5.33;4.67;;;;;;;;4741512;29;45535;-90
2023/05/27 13:55:15;;;;;;;;;7.00;7.00;;;;;;;;4741216;29;45491;-90
2023/05/27 13:57:43;;;;;;;;;5.00;4.67;;;;;;;;4753465;29;45477;-90
2023/05/27 14:00:08;;;;;;;;;5.00;5.00;;;;;;;;4715762;29;565783;-90
2023/05/27 14:02:36;;;;;;;;;5.00;5.00;;;;;;;;4450692;30;4238005;-90
2023/05/27 14:05:01;;;;;;;;;3.33;3.33;;;;;;;;4716960;30;696561;-90
2023/05/27 14:07:28;;;;;;;;;7.25;5.00;;;;;;;;4004393;30;10621628;-90
2023/05/27 14:09:53;;;;;;;;;3.75;3.75;;;;;;;;4742078;29;45306;-90
2023/05/27 14:12:18;;;;;;;;;6.33;5.00;;;;;;;;4604327;30;2180735;-90
2023/05/27 14:14:44;;;;;;;;;3.00;3.00;;;;;;;;4667201;30;1323390;-90
2023/05/27 14:17:09;;;;;;;;;4.00;4.00;;;;;;;;4695711;30;1393763;-90
2023/05/27 14:19:34;;;;;;;;;2.00;2.00;;;;;;;;4425992;29;5781366;-90
2023/05/27 14:21:59;;;;;;;;;2.00;2.00;;;;;;;;4740202;30;45519;-90
2023/05/27 14:24:25;;;;;;;;;3.50;3.50;;;;;;;;4521511;29;4292551;-90
2023/05/27 14:26:50;;;;;;;;;6.00;6.00;;;;;;;;3458743;29;6427069;-90
2023/05/27 14:29:16;;;;;;;;;3.00;3.00;;;;;;;;4234834;30;7352334;-90
2023/05/27 14:31:41;;;;;;;;;2.33;2.33;;;;;;;;4397698;30;9992226;-90
2023/05/27 14:34:06;;;;;;;;;4.00;4.00;;;;;;;;4322477;30;6608439;-90
2023/05/27 14:36:32;;;;;;;;;5.00;5.00;;;;;;;;2868163;29;26995252;-90
2023/05/27 14:38:57;;;;;;;;;4.67;4.67;;;;;;;;3484148;30;25539487;-90
2023/05/27 14:41:22;;;;;;;;;4.33;4.33;;;;;;;;4741242;29;46037;-90
2023/05/27 14:43:50;;;;;;;;;4.00;4.00;;;;;;;;4740169;29;45287;-90
2023/05/27 14:46:15;;;;;;;;;5.33;5.33;;;;;;;;4738936;30;46074;-90
2023/05/27 14:48:41;;;;;;;;;3.67;3.67;;;;;;;;4740221;30;45271;-90
2023/05/27 14:51:06;;;;;;;;;5.00;5.00;;;;;;;;4740174;30;45510;-90
2023/05/27 14:53:31;;;;;;;;;4.00;4.00;;;;;;;;4741003;29;48070;-90
2023/05/27 14:55:57;;;;;;;;;4.33;4.00;;;;;;;;4740059;30;45239;-90
2023/05/27 14:58:22;;;;;;;;;4.00;4.00;;;;;;;;4739241;29;45394;-90
2023/05/27 15:00:47;;;;;;;;;4.00;4.00;;;;;;;;4740885;30;45302;-90
2023/05/27 15:03:12;;;;;;;;;6.00;4.00;;;;;;;;4741059;30;46226;-90
2023/05/27 15:05:38;;;;;;;;;5.00;5.00;;;;;;;;4738889;30;45512;-90
2023/05/27 15:08:05;;;;;;;;;3.00;3.00;;;;;;;;2560370;29;11216991;-90
2023/05/27 15:10:30;;;;;;;;;2.20;2.20;;;;;;;;2616937;30;21353431;-90
2023/05/27 15:13:03;;;;;;;;;;;;;;;;;;926677;29;86611670;-90
2023/05/27 15:16:25;;;;;;;;;3.00;3.00;;;;;;;;2631017;30;84194126;-90
2023/05/27 15:18:58;;;;;;;;;2.50;2.50;;;;;;;;3938632;29;12334595;-90
2023/05/27 15:21:24;;;;;;;;;;;;;;;;;;1402453;30;74351452;-90
2023/05/27 15:25:15;;;;;;;;;3.50;3.50;;;;;;;;977675;30;108220034;-89
2023/05/27 15:30:03;;;;;;;;;2.50;2.50;;;;;;;;1137192;29;90251404;-90
2023/05/27 15:32:29;;;;;;;;;8.33;8.33;;;;;;;;1600336;30;50329681;-90
2023/05/27 15:34:54;;;;;;;;;5.00;5.00;;;;;;;;3411146;29;14045191;-90
2023/05/27 15:37:19;;;;;;;;;2.67;2.67;;;;;;;;3169625;30;17393240;-90
2023/05/27 15:41:29;;;;;;;;;;;;;;;;;;623749;29;117051543;-90
2023/05/27 15:46:15;;;;;;;;;3.50;3.50;;;;;;;;3;34056516;135021444;-90
2023/05/27 15:52:31;;;;;;;;;;;;;;;;;;3;108047097;139558130;-90
2023/05/27 15:56:44;;;;;;;;;2.50;2.50;;;;;;;;3;106846205;114501366;-90
2023/05/27 16:02:41;;;;;;;;;7.00;7.00;;;;;;;;162961;30;135361546;-89
2023/05/27 16:09:36;;;;;;;;;6.50;6.50;;;;;;;;4;31440170;139479533;-90
2023/05/27 16:15:41;;;;;;;;;;;;;;;;;;3;108046146;117054348;-90
2023/05/27 16:21:13;;;;;;;;;1.50;1.50;;;;;;;;287587;30;128919972;-90
2023/05/27 16:24:08;;;;;;;;;6.50;6.50;;;;;;;;3;66723453;107994535;-90
2023/05/27 16:28:26;;;;;;;;;4.00;4.00;;;;;;;;1140947;30;115818053;-89
2023/05/27 16:32:49;;;;;;;;;;;;;;;;;;275864;29;106135449;-90
2023/05/27 16:35:45;;;;;;;;;1.00;1.00;;;;;;;;980795;30;79273442;-90
2023/05/27 16:39:00;;;;;;;;;5.00;5.00;;;;;;;;825628;30;138821611;-89
2023/05/27 16:41:25;;;;;;;;;3.00;3.00;;;;;;;;3690599;30;12104226;-90